sensor_id;sensor_type;location;lat;lon;timestamp;P1;durP1;ratioP1;P2;durP2;ratioP2
50393;SDS011;36308;46.312;25.288;2023-01-09T00:01:37;39.47;;;21.63;;
50393;SDS011;36308;46.312;25.288;2023-01-09T00:04:04;38.20;;;20.35;;
50393;SDS011;36308;46.312;25.288;2023-01-09T00:06:31;41.15;;;22.52;;
50393;SDS011;36308;46.312;25.288;2023-01-09T00:08:56;39.10;;;21.15;;
50393;SDS011;36308;46.312;25.288;2023-01-09T00:11:22;29.95;;;16.88;;
50393;SDS011;36308;46.312;25.288;2023-01-09T00:13:48;26.55;;;15.18;;
50393;SDS011;36308;46.312;25.288;2023-01-09T00:16:14;28.60;;;15.25;;
50393;SDS011;36308;46.312;25.288;2023-01-09T00:18:40;31.88;;;16.27;;
50393;SDS011;36308;46.312;25.288;2023-01-09T00:21:06;27.27;;;14.73;;
50393;SDS011;36308;46.312;25.288;2023-01-09T00:23:33;25.38;;;13.85;;
50393;SDS011;36308;46.312;25.288;2023-01-09T00:26:21;25.65;;;14.95;;
50393;SDS011;36308;46.312;25.288;2023-01-09T00:28:46;36.42;;;21.48;;
50393;SDS011;36308;46.312;25.288;2023-01-09T00:31:13;34.72;;;19.30;;
50393;SDS011;36308;46.312;25.288;2023-01-09T00:33:58;31.42;;;16.85;;
50393;SDS011;36308;46.312;25.288;2023-01-09T00:36:26;27.27;;;15.90;;
50393;SDS011;36308;46.312;25.288;2023-01-09T00:38:52;38.00;;;19.88;;
50393;SDS011;36308;46.312;25.288;2023-01-09T00:41:20;35.50;;;19.63;;
50393;SDS011;36308;46.312;25.288;2023-01-09T00:43:50;25.33;;;14.65;;
50393;SDS011;36308;46.312;25.288;2023-01-09T00:46:20;23.08;;;13.38;;
50393;SDS011;36308;46.312;25.288;2023-01-09T00:48:50;24.45;;;13.70;;
50393;SDS011;36308;46.312;25.288;2023-01-09T00:51:16;27.20;;;15.27;;
50393;SDS011;36308;46.312;25.288;2023-01-09T00:53:44;22.42;;;13.38;;
50393;SDS011;36308;46.312;25.288;2023-01-09T00:56:12;25.25;;;14.65;;
50393;SDS011;36308;46.312;25.288;2023-01-09T00:58:40;25.67;;;14.48;;
50393;SDS011;36308;46.312;25.288;2023-01-09T01:01:06;28.73;;;16.33;;
50393;SDS011;36308;46.312;25.288;2023-01-09T01:03:32;30.55;;;16.33;;
50393;SDS011;36308;46.312;25.288;2023-01-09T01:05:57;33.50;;;16.80;;
50393;SDS011;36308;46.312;25.288;2023-01-09T01:08:42;34.28;;;18.05;;
50393;SDS011;36308;46.312;25.288;2023-01-09T01:11:09;29.02;;;17.60;;
50393;SDS011;36308;46.312;25.288;2023-01-09T01:13:36;27.15;;;16.50;;
50393;SDS011;36308;46.312;25.288;2023-01-09T01:16:04;27.10;;;15.38;;
50393;SDS011;36308;46.312;25.288;2023-01-09T01:18:31;26.35;;;14.75;;
50393;SDS011;36308;46.312;25.288;2023-01-09T01:20:56;26.10;;;14.70;;
50393;SDS011;36308;46.312;25.288;2023-01-09T01:23:22;25.23;;;13.82;;
50393;SDS011;36308;46.312;25.288;2023-01-09T01:25:48;24.77;;;13.20;;
50393;SDS011;36308;46.312;25.288;2023-01-09T01:28:14;25.45;;;12.88;;
50393;SDS011;36308;46.312;25.288;2023-01-09T01:30:40;23.15;;;13.23;;
50393;SDS011;36308;46.312;25.288;2023-01-09T01:33:07;25.30;;;13.13;;
50393;SDS011;36308;46.312;25.288;2023-01-09T01:35:33;29.75;;;15.02;;
50393;SDS011;36308;46.312;25.288;2023-01-09T01:37:59;24.52;;;14.40;;
50393;SDS011;36308;46.312;25.288;2023-01-09T01:40:24;24.95;;;14.00;;
50393;SDS011;36308;46.312;25.288;2023-01-09T01:42:51;24.98;;;14.18;;
50393;SDS011;36308;46.312;25.288;2023-01-09T01:45:19;26.23;;;14.23;;
50393;SDS011;36308;46.312;25.288;2023-01-09T01:50:57;28.77;;;15.55;;
50393;SDS011;36308;46.312;25.288;2023-01-09T01:53:15;29.07;;;16.07;;
50393;SDS011;36308;46.312;25.288;2023-01-09T01:56:13;27.73;;;14.48;;
50393;SDS011;36308;46.312;25.288;2023-01-09T01:58:44;28.02;;;15.10;;
50393;SDS011;36308;46.312;25.288;2023-01-09T02:01:13;24.65;;;13.32;;
50393;SDS011;36308;46.312;25.288;2023-01-09T02:03:39;20.77;;;11.40;;
50393;SDS011;36308;46.312;25.288;2023-01-09T02:06:06;18.90;;;11.23;;
50393;SDS011;36308;46.312;25.288;2023-01-09T02:08:33;18.48;;;10.43;;
50393;SDS011;36308;46.312;25.288;2023-01-09T02:11:00;20.65;;;12.30;;
50393;SDS011;36308;46.312;25.288;2023-01-09T02:13:27;20.00;;;11.82;;
50393;SDS011;36308;46.312;25.288;2023-01-09T02:18:44;24.95;;;13.13;;
50393;SDS011;36308;46.312;25.288;2023-01-09T02:37:33;20.10;;;10.73;;
50393;SDS011;36308;46.312;25.288;2023-01-09T02:40:09;21.17;;;10.35;;
50393;SDS011;36308;46.312;25.288;2023-01-09T02:42:44;20.83;;;10.90;;
50393;SDS011;36308;46.312;25.288;2023-01-09T02:45:12;24.38;;;12.80;;
50393;SDS011;36308;46.312;25.288;2023-01-09T02:47:38;20.20;;;12.20;;
50393;SDS011;36308;46.312;25.288;2023-01-09T02:50:09;21.23;;;12.25;;
50393;SDS011;36308;46.312;25.288;2023-01-09T02:52:52;20.40;;;12.75;;
50393;SDS011;36308;46.312;25.288;2023-01-09T02:55:57;20.63;;;11.95;;
50393;SDS011;36308;46.312;25.288;2023-01-09T03:07:03;19.13;;;10.98;;
50393;SDS011;36308;46.312;25.288;2023-01-09T03:09:37;17.73;;;10.43;;
50393;SDS011;36308;46.312;25.288;2023-01-09T03:12:09;19.13;;;11.35;;
50393;SDS011;36308;46.312;25.288;2023-01-09T03:14:41;18.30;;;10.82;;
50393;SDS011;36308;46.312;25.288;2023-01-09T03:19:40;21.83;;;11.48;;
50393;SDS011;36308;46.312;25.288;2023-01-09T03:22:07;24.38;;;14.25;;
50393;SDS011;36308;46.312;25.288;2023-01-09T03:24:33;22.55;;;13.27;;
50393;SDS011;36308;46.312;25.288;2023-01-09T03:26:58;21.52;;;12.70;;
50393;SDS011;36308;46.312;25.288;2023-01-09T03:29:24;23.95;;;12.95;;
50393;SDS011;36308;46.312;25.288;2023-01-09T03:31:49;23.38;;;13.07;;
50393;SDS011;36308;46.312;25.288;2023-01-09T03:34:15;26.20;;;14.75;;
50393;SDS011;36308;46.312;25.288;2023-01-09T03:36:40;26.67;;;14.25;;
50393;SDS011;36308;46.312;25.288;2023-01-09T03:39:06;26.75;;;14.65;;
50393;SDS011;36308;46.312;25.288;2023-01-09T03:41:31;28.67;;;14.52;;
50393;SDS011;36308;46.312;25.288;2023-01-09T03:43:57;26.90;;;15.13;;
50393;SDS011;36308;46.312;25.288;2023-01-09T03:46:22;32.30;;;17.00;;
50393;SDS011;36308;46.312;25.288;2023-01-09T03:48:48;34.90;;;17.38;;
50393;SDS011;36308;46.312;25.288;2023-01-09T03:51:13;47.72;;;23.75;;
50393;SDS011;36308;46.312;25.288;2023-01-09T03:53:39;45.35;;;21.75;;
50393;SDS011;36308;46.312;25.288;2023-01-09T03:56:05;48.20;;;24.75;;
50393;SDS011;36308;46.312;25.288;2023-01-09T03:58:31;45.17;;;22.92;;
50393;SDS011;36308;46.312;25.288;2023-01-09T04:01:00;42.47;;;22.60;;
50393;SDS011;36308;46.312;25.288;2023-01-09T04:03:27;44.97;;;23.50;;
50393;SDS011;36308;46.312;25.288;2023-01-09T04:05:53;41.97;;;21.23;;
50393;SDS011;36308;46.312;25.288;2023-01-09T04:08:18;39.28;;;21.65;;
50393;SDS011;36308;46.312;25.288;2023-01-09T04:10:45;34.42;;;18.27;;
50393;SDS011;36308;46.312;25.288;2023-01-09T04:13:14;41.92;;;22.65;;
50393;SDS011;36308;46.312;25.288;2023-01-09T04:15:40;34.45;;;18.88;;
50393;SDS011;36308;46.312;25.288;2023-01-09T04:18:05;28.10;;;15.63;;
50393;SDS011;36308;46.312;25.288;2023-01-09T04:20:31;33.25;;;20.27;;
50393;SDS011;36308;46.312;25.288;2023-01-09T04:22:57;36.47;;;20.77;;
50393;SDS011;36308;46.312;25.288;2023-01-09T04:25:24;63.25;;;33.10;;
50393;SDS011;36308;46.312;25.288;2023-01-09T04:27:50;66.80;;;32.42;;
50393;SDS011;36308;46.312;25.288;2023-01-09T04:30:15;35.17;;;22.05;;
50393;SDS011;36308;46.312;25.288;2023-01-09T04:32:41;25.20;;;16.00;;
50393;SDS011;36308;46.312;25.288;2023-01-09T04:35:07;29.27;;;18.58;;
50393;SDS011;36308;46.312;25.288;2023-01-09T04:37:33;29.08;;;19.27;;
50393;SDS011;36308;46.312;25.288;2023-01-09T04:40:01;59.72;;;31.50;;
50393;SDS011;36308;46.312;25.288;2023-01-09T04:42:32;52.15;;;30.70;;
50393;SDS011;36308;46.312;25.288;2023-01-09T04:44:57;52.83;;;28.77;;
50393;SDS011;36308;46.312;25.288;2023-01-09T04:47:23;56.78;;;26.55;;
50393;SDS011;36308;46.312;25.288;2023-01-09T04:49:48;60.35;;;30.77;;
50393;SDS011;36308;46.312;25.288;2023-01-09T04:52:14;68.30;;;35.00;;
50393;SDS011;36308;46.312;25.288;2023-01-09T04:54:39;65.13;;;33.85;;
50393;SDS011;36308;46.312;25.288;2023-01-09T04:57:05;78.18;;;36.33;;
50393;SDS011;36308;46.312;25.288;2023-01-09T04:59:31;72.75;;;37.40;;
50393;SDS011;36308;46.312;25.288;2023-01-09T05:01:56;69.70;;;36.13;;
50393;SDS011;36308;46.312;25.288;2023-01-09T05:04:23;82.25;;;39.97;;
50393;SDS011;36308;46.312;25.288;2023-01-09T05:06:49;97.75;;;44.65;;
50393;SDS011;36308;46.312;25.288;2023-01-09T05:09:15;101.32;;;43.97;;
50393;SDS011;36308;46.312;25.288;2023-01-09T05:11:41;91.82;;;40.55;;
50393;SDS011;36308;46.312;25.288;2023-01-09T05:14:06;83.07;;;36.45;;
50393;SDS011;36308;46.312;25.288;2023-01-09T05:16:32;88.38;;;39.60;;
50393;SDS011;36308;46.312;25.288;2023-01-09T05:18:58;91.72;;;37.53;;
50393;SDS011;36308;46.312;25.288;2023-01-09T05:21:24;122.15;;;51.22;;
50393;SDS011;36308;46.312;25.288;2023-01-09T05:23:51;71.82;;;31.70;;
50393;SDS011;36308;46.312;25.288;2023-01-09T05:26:17;65.35;;;31.85;;
50393;SDS011;36308;46.312;25.288;2023-01-09T05:28:47;62.53;;;32.45;;
50393;SDS011;36308;46.312;25.288;2023-01-09T05:31:14;86.15;;;42.40;;
50393;SDS011;36308;46.312;25.288;2023-01-09T05:33:39;46.28;;;26.60;;
50393;SDS011;36308;46.312;25.288;2023-01-09T05:36:05;58.35;;;31.10;;
50393;SDS011;36308;46.312;25.288;2023-01-09T05:38:31;57.38;;;31.95;;
50393;SDS011;36308;46.312;25.288;2023-01-09T05:40:56;70.70;;;39.42;;
50393;SDS011;36308;46.312;25.288;2023-01-09T05:43:22;90.78;;;44.10;;
50393;SDS011;36308;46.312;25.288;2023-01-09T05:45:48;80.28;;;41.33;;
50393;SDS011;36308;46.312;25.288;2023-01-09T05:48:13;138.63;;;61.53;;
50393;SDS011;36308;46.312;25.288;2023-01-09T05:50:39;97.10;;;47.08;;
50393;SDS011;36308;46.312;25.288;2023-01-09T05:53:04;94.03;;;45.50;;
50393;SDS011;36308;46.312;25.288;2023-01-09T05:55:30;69.70;;;34.47;;
50393;SDS011;36308;46.312;25.288;2023-01-09T05:57:56;48.63;;;24.75;;
50393;SDS011;36308;46.312;25.288;2023-01-09T06:00:22;52.22;;;24.85;;
50393;SDS011;36308;46.312;25.288;2023-01-09T06:02:47;65.60;;;31.08;;
50393;SDS011;36308;46.312;25.288;2023-01-09T06:05:13;159.55;;;62.95;;
50393;SDS011;36308;46.312;25.288;2023-01-09T06:07:38;325.20;;;119.63;;
50393;SDS011;36308;46.312;25.288;2023-01-09T06:10:06;205.48;;;81.80;;
50393;SDS011;36308;46.312;25.288;2023-01-09T06:12:32;155.13;;;60.97;;
50393;SDS011;36308;46.312;25.288;2023-01-09T06:14:58;76.88;;;35.90;;
50393;SDS011;36308;46.312;25.288;2023-01-09T06:17:23;77.30;;;37.88;;
50393;SDS011;36308;46.312;25.288;2023-01-09T06:19:49;107.57;;;49.08;;
50393;SDS011;36308;46.312;25.288;2023-01-09T06:22:15;106.03;;;51.92;;
50393;SDS011;36308;46.312;25.288;2023-01-09T06:24:40;144.00;;;67.13;;
50393;SDS011;36308;46.312;25.288;2023-01-09T06:27:06;115.88;;;55.47;;
50393;SDS011;36308;46.312;25.288;2023-01-09T06:29:31;88.13;;;45.05;;
50393;SDS011;36308;46.312;25.288;2023-01-09T06:31:57;71.78;;;36.38;;
50393;SDS011;36308;46.312;25.288;2023-01-09T06:34:22;62.38;;;33.72;;
50393;SDS011;36308;46.312;25.288;2023-01-09T06:36:48;62.83;;;31.17;;
50393;SDS011;36308;46.312;25.288;2023-01-09T06:39:13;105.63;;;52.97;;
50393;SDS011;36308;46.312;25.288;2023-01-09T06:41:39;82.75;;;43.47;;
50393;SDS011;36308;46.312;25.288;2023-01-09T06:44:04;88.45;;;47.80;;
50393;SDS011;36308;46.312;25.288;2023-01-09T06:46:30;81.80;;;43.97;;
50393;SDS011;36308;46.312;25.288;2023-01-09T06:48:55;79.72;;;44.40;;
50393;SDS011;36308;46.312;25.288;2023-01-09T06:51:21;57.58;;;34.22;;
50393;SDS011;36308;46.312;25.288;2023-01-09T06:53:46;45.00;;;26.48;;
50393;SDS011;36308;46.312;25.288;2023-01-09T06:56:12;36.08;;;22.10;;
50393;SDS011;36308;46.312;25.288;2023-01-09T06:58:37;29.70;;;17.88;;
50393;SDS011;36308;46.312;25.288;2023-01-09T07:01:03;31.30;;;17.77;;
50393;SDS011;36308;46.312;25.288;2023-01-09T07:03:28;25.25;;;15.07;;
50393;SDS011;36308;46.312;25.288;2023-01-09T07:05:54;32.58;;;17.60;;
50393;SDS011;36308;46.312;25.288;2023-01-09T07:08:20;35.45;;;22.00;;
50393;SDS011;36308;46.312;25.288;2023-01-09T07:10:45;33.53;;;21.35;;
50393;SDS011;36308;46.312;25.288;2023-01-09T07:13:11;50.15;;;28.35;;
50393;SDS011;36308;46.312;25.288;2023-01-09T07:15:36;37.83;;;23.08;;
50393;SDS011;36308;46.312;25.288;2023-01-09T07:18:02;36.55;;;22.80;;
50393;SDS011;36308;46.312;25.288;2023-01-09T07:20:27;36.00;;;21.83;;
50393;SDS011;36308;46.312;25.288;2023-01-09T07:22:53;40.55;;;23.40;;
50393;SDS011;36308;46.312;25.288;2023-01-09T07:25:19;39.85;;;24.80;;
50393;SDS011;36308;46.312;25.288;2023-01-09T07:27:45;44.42;;;25.23;;
50393;SDS011;36308;46.312;25.288;2023-01-09T07:30:11;45.13;;;24.75;;
50393;SDS011;36308;46.312;25.288;2023-01-09T07:32:36;80.10;;;37.50;;
50393;SDS011;36308;46.312;25.288;2023-01-09T07:35:04;51.60;;;32.33;;
50393;SDS011;36308;46.312;25.288;2023-01-09T07:37:34;72.88;;;40.75;;
50393;SDS011;36308;46.312;25.288;2023-01-09T07:39:59;88.30;;;53.97;;
50393;SDS011;36308;46.312;25.288;2023-01-09T07:42:25;119.13;;;70.03;;
50393;SDS011;36308;46.312;25.288;2023-01-09T07:44:50;113.38;;;69.90;;
50393;SDS011;36308;46.312;25.288;2023-01-09T07:47:16;100.60;;;63.88;;
50393;SDS011;36308;46.312;25.288;2023-01-09T07:49:41;180.45;;;63.28;;
50393;SDS011;36308;46.312;25.288;2023-01-09T07:52:07;103.70;;;56.53;;
50393;SDS011;36308;46.312;25.288;2023-01-09T07:54:32;89.15;;;53.75;;
50393;SDS011;36308;46.312;25.288;2023-01-09T07:56:58;100.03;;;58.03;;
50393;SDS011;36308;46.312;25.288;2023-01-09T07:59:25;96.97;;;50.22;;
50393;SDS011;36308;46.312;25.288;2023-01-09T08:01:52;113.10;;;59.22;;
50393;SDS011;36308;46.312;25.288;2023-01-09T08:04:18;102.43;;;54.53;;
50393;SDS011;36308;46.312;25.288;2023-01-09T08:06:44;106.75;;;57.20;;
50393;SDS011;36308;46.312;25.288;2023-01-09T08:09:09;159.30;;;78.55;;
50393;SDS011;36308;46.312;25.288;2023-01-09T08:11:35;189.35;;;99.97;;
50393;SDS011;36308;46.312;25.288;2023-01-09T08:14:00;116.25;;;64.28;;
50393;SDS011;36308;46.312;25.288;2023-01-09T08:16:26;170.73;;;80.78;;
50393;SDS011;36308;46.312;25.288;2023-01-09T08:18:51;107.45;;;56.83;;
50393;SDS011;36308;46.312;25.288;2023-01-09T08:21:17;100.75;;;54.38;;
50393;SDS011;36308;46.312;25.288;2023-01-09T08:23:42;103.70;;;56.50;;
50393;SDS011;36308;46.312;25.288;2023-01-09T08:26:09;99.57;;;58.05;;
50393;SDS011;36308;46.312;25.288;2023-01-09T08:28:35;122.57;;;70.97;;
50393;SDS011;36308;46.312;25.288;2023-01-09T08:31:00;81.30;;;50.42;;
50393;SDS011;36308;46.312;25.288;2023-01-09T08:33:26;89.18;;;51.13;;
50393;SDS011;36308;46.312;25.288;2023-01-09T08:35:51;83.35;;;51.30;;
50393;SDS011;36308;46.312;25.288;2023-01-09T08:38:18;80.70;;;47.67;;
50393;SDS011;36308;46.312;25.288;2023-01-09T08:40:45;72.88;;;43.72;;
50393;SDS011;36308;46.312;25.288;2023-01-09T08:43:11;76.63;;;48.03;;
50393;SDS011;36308;46.312;25.288;2023-01-09T08:45:55;93.85;;;54.20;;
50393;SDS011;36308;46.312;25.288;2023-01-09T08:48:44;96.95;;;57.88;;
50393;SDS011;36308;46.312;25.288;2023-01-09T08:51:10;93.00;;;55.50;;
50393;SDS011;36308;46.312;25.288;2023-01-09T08:53:36;94.32;;;56.92;;
50393;SDS011;36308;46.312;25.288;2023-01-09T08:56:02;87.82;;;54.75;;
50393;SDS011;36308;46.312;25.288;2023-01-09T08:58:28;91.47;;;55.22;;
50393;SDS011;36308;46.312;25.288;2023-01-09T09:00:54;92.00;;;54.80;;
50393;SDS011;36308;46.312;25.288;2023-01-09T09:03:20;112.95;;;62.28;;
50393;SDS011;36308;46.312;25.288;2023-01-09T09:05:45;219.98;;;102.45;;
50393;SDS011;36308;46.312;25.288;2023-01-09T09:08:11;129.32;;;66.47;;
50393;SDS011;36308;46.312;25.288;2023-01-09T09:10:37;119.13;;;61.80;;
50393;SDS011;36308;46.312;25.288;2023-01-09T09:13:02;117.32;;;59.63;;
50393;SDS011;36308;46.312;25.288;2023-01-09T09:15:28;88.38;;;48.78;;
50393;SDS011;36308;46.312;25.288;2023-01-09T09:17:57;69.78;;;41.03;;
50393;SDS011;36308;46.312;25.288;2023-01-09T09:20:27;67.13;;;39.50;;
50393;SDS011;36308;46.312;25.288;2023-01-09T09:22:54;65.25;;;38.05;;
50393;SDS011;36308;46.312;25.288;2023-01-09T09:25:20;64.43;;;38.08;;
50393;SDS011;36308;46.312;25.288;2023-01-09T09:27:46;65.55;;;38.72;;
50393;SDS011;36308;46.312;25.288;2023-01-09T09:30:13;59.20;;;36.47;;
50393;SDS011;36308;46.312;25.288;2023-01-09T09:32:40;51.15;;;33.10;;
50393;SDS011;36308;46.312;25.288;2023-01-09T09:35:06;45.85;;;29.33;;
50393;SDS011;36308;46.312;25.288;2023-01-09T09:37:32;43.25;;;27.30;;
50393;SDS011;36308;46.312;25.288;2023-01-09T09:39:58;49.67;;;28.55;;
50393;SDS011;36308;46.312;25.288;2023-01-09T09:45:46;45.08;;;26.15;;
50393;SDS011;36308;46.312;25.288;2023-01-09T09:50:58;44.75;;;27.15;;
50393;SDS011;36308;46.312;25.288;2023-01-09T09:56:10;61.13;;;35.47;;
50393;SDS011;36308;46.312;25.288;2023-01-09T09:58:39;64.47;;;41.05;;
50393;SDS011;36308;46.312;25.288;2023-01-09T10:01:28;55.65;;;33.60;;
50393;SDS011;36308;46.312;25.288;2023-01-09T10:04:00;28.75;;;17.80;;
50393;SDS011;36308;46.312;25.288;2023-01-09T10:06:44;24.83;;;16.40;;
50393;SDS011;36308;46.312;25.288;2023-01-09T10:09:54;28.45;;;18.25;;
50393;SDS011;36308;46.312;25.288;2023-01-09T10:14:53;28.75;;;13.82;;
50393;SDS011;36308;46.312;25.288;2023-01-09T10:30:32;11.13;;;4.55;;
50393;SDS011;36308;46.312;25.288;2023-01-09T10:35:45;9.48;;;4.85;;
50393;SDS011;36308;46.312;25.288;2023-01-09T10:38:18;8.93;;;4.53;;
50393;SDS011;36308;46.312;25.288;2023-01-09T10:40:54;17.20;;;5.65;;
50393;SDS011;36308;46.312;25.288;2023-01-09T10:43:50;12.48;;;6.20;;
50393;SDS011;36308;46.312;25.288;2023-01-09T10:46:24;14.05;;;5.78;;
50393;SDS011;36308;46.312;25.288;2023-01-09T10:48:54;10.50;;;5.05;;
50393;SDS011;36308;46.312;25.288;2023-01-09T10:51:28;11.98;;;7.35;;
50393;SDS011;36308;46.312;25.288;2023-01-09T10:54:00;13.75;;;5.78;;
50393;SDS011;36308;46.312;25.288;2023-01-09T10:56:31;11.98;;;5.70;;
50393;SDS011;36308;46.312;25.288;2023-01-09T10:59:02;6.65;;;3.22;;
50393;SDS011;36308;46.312;25.288;2023-01-09T11:01:29;14.43;;;4.85;;
50393;SDS011;36308;46.312;25.288;2023-01-09T11:03:57;8.05;;;4.30;;
50393;SDS011;36308;46.312;25.288;2023-01-09T11:09:12;11.68;;;5.40;;
50393;SDS011;36308;46.312;25.288;2023-01-09T11:11:40;13.70;;;6.18;;
50393;SDS011;36308;46.312;25.288;2023-01-09T11:14:12;10.93;;;5.25;;
50393;SDS011;36308;46.312;25.288;2023-01-09T11:19:26;22.73;;;7.10;;
50393;SDS011;36308;46.312;25.288;2023-01-09T11:22:34;12.00;;;5.10;;
50393;SDS011;36308;46.312;25.288;2023-01-09T11:24:41;10.57;;;5.50;;
50393;SDS011;36308;46.312;25.288;2023-01-09T11:32:53;15.20;;;7.95;;
50393;SDS011;36308;46.312;25.288;2023-01-09T11:35:21;11.70;;;4.97;;
50393;SDS011;36308;46.312;25.288;2023-01-09T11:38:13;15.23;;;6.20;;
50393;SDS011;36308;46.312;25.288;2023-01-09T11:40:49;15.80;;;6.88;;
50393;SDS011;36308;46.312;25.288;2023-01-09T11:43:32;14.00;;;6.65;;
50393;SDS011;36308;46.312;25.288;2023-01-09T11:45:59;13.77;;;7.60;;
50393;SDS011;36308;46.312;25.288;2023-01-09T11:51:03;12.38;;;5.80;;
50393;SDS011;36308;46.312;25.288;2023-01-09T11:53:48;7.97;;;4.55;;
50393;SDS011;36308;46.312;25.288;2023-01-09T11:58:41;10.48;;;6.15;;
50393;SDS011;36308;46.312;25.288;2023-01-09T12:04:01;13.25;;;6.18;;
50393;SDS011;36308;46.312;25.288;2023-01-09T12:07:01;14.60;;;6.57;;
50393;SDS011;36308;46.312;25.288;2023-01-09T12:09:45;13.02;;;6.63;;
50393;SDS011;36308;46.312;25.288;2023-01-09T12:18:13;14.23;;;7.22;;
50393;SDS011;36308;46.312;25.288;2023-01-09T12:40:36;18.65;;;7.20;;
50393;SDS011;36308;46.312;25.288;2023-01-09T12:43:36;18.40;;;9.82;;
50393;SDS011;36308;46.312;25.288;2023-01-09T12:46:14;18.42;;;11.23;;
50393;SDS011;36308;46.312;25.288;2023-01-09T12:56:52;11.10;;;6.28;;
50393;SDS011;36308;46.312;25.288;2023-01-09T13:01:58;11.55;;;5.80;;
50393;SDS011;36308;46.312;25.288;2023-01-09T13:07:28;13.45;;;7.35;;
50393;SDS011;36308;46.312;25.288;2023-01-09T13:09:59;15.48;;;8.43;;
50393;SDS011;36308;46.312;25.288;2023-01-09T13:12:32;22.13;;;9.77;;
50393;SDS011;36308;46.312;25.288;2023-01-09T13:15:03;15.30;;;9.63;;
50393;SDS011;36308;46.312;25.288;2023-01-09T13:17:50;24.42;;;11.98;;
50393;SDS011;36308;46.312;25.288;2023-01-09T13:20:20;23.63;;;14.70;;
50393;SDS011;36308;46.312;25.288;2023-01-09T13:22:49;42.90;;;22.73;;
50393;SDS011;36308;46.312;25.288;2023-01-09T13:25:31;21.58;;;13.98;;
50393;SDS011;36308;46.312;25.288;2023-01-09T13:28:23;28.08;;;13.75;;
50393;SDS011;36308;46.312;25.288;2023-01-09T13:33:22;25.15;;;13.80;;
50393;SDS011;36308;46.312;25.288;2023-01-09T13:35:53;26.23;;;14.32;;
50393;SDS011;36308;46.312;25.288;2023-01-09T13:38:22;24.42;;;14.00;;
50393;SDS011;36308;46.312;25.288;2023-01-09T13:41:34;35.50;;;17.80;;
50393;SDS011;36308;46.312;25.288;2023-01-09T13:44:01;24.42;;;15.07;;
50393;SDS011;36308;46.312;25.288;2023-01-09T13:49:30;39.58;;;24.60;;
50393;SDS011;36308;46.312;25.288;2023-01-09T13:52:03;44.35;;;22.90;;
50393;SDS011;36308;46.312;25.288;2023-01-09T13:59:45;48.10;;;24.80;;
50393;SDS011;36308;46.312;25.288;2023-01-09T14:05:00;50.13;;;25.38;;
50393;SDS011;36308;46.312;25.288;2023-01-09T14:07:30;48.22;;;24.35;;
50393;SDS011;36308;46.312;25.288;2023-01-09T14:10:05;46.72;;;25.83;;
50393;SDS011;36308;46.312;25.288;2023-01-09T14:12:45;46.75;;;25.00;;
50393;SDS011;36308;46.312;25.288;2023-01-09T14:15:26;54.90;;;26.23;;
50393;SDS011;36308;46.312;25.288;2023-01-09T14:17:59;46.83;;;23.58;;
50393;SDS011;36308;46.312;25.288;2023-01-09T14:20:33;46.13;;;25.35;;
50393;SDS011;36308;46.312;25.288;2023-01-09T14:23:02;43.90;;;24.67;;
50393;SDS011;36308;46.312;25.288;2023-01-09T14:25:30;39.35;;;22.15;;
50393;SDS011;36308;46.312;25.288;2023-01-09T14:35:44;34.13;;;19.60;;
50393;SDS011;36308;46.312;25.288;2023-01-09T14:40:45;28.17;;;17.42;;
50393;SDS011;36308;46.312;25.288;2023-01-09T14:43:18;28.17;;;17.30;;
50393;SDS011;36308;46.312;25.288;2023-01-09T14:45:49;32.75;;;21.02;;
50393;SDS011;36308;46.312;25.288;2023-01-09T14:48:15;52.72;;;32.47;;
50393;SDS011;36308;46.312;25.288;2023-01-09T14:53:17;53.78;;;34.17;;
50393;SDS011;36308;46.312;25.288;2023-01-09T14:55:56;52.85;;;34.30;;
50393;SDS011;36308;46.312;25.288;2023-01-09T15:00:59;48.95;;;30.15;;
50393;SDS011;36308;46.312;25.288;2023-01-09T15:03:28;58.75;;;32.90;;
50393;SDS011;36308;46.312;25.288;2023-01-09T15:06:15;79.57;;;42.42;;
50393;SDS011;36308;46.312;25.288;2023-01-09T15:08:44;87.72;;;48.38;;
50393;SDS011;36308;46.312;25.288;2023-01-09T15:11:11;122.55;;;65.35;;
50393;SDS011;36308;46.312;25.288;2023-01-09T15:13:41;153.23;;;84.15;;
50393;SDS011;36308;46.312;25.288;2023-01-09T15:16:14;149.85;;;78.82;;
50393;SDS011;36308;46.312;25.288;2023-01-09T15:18:46;196.18;;;98.57;;
50393;SDS011;36308;46.312;25.288;2023-01-09T15:21:18;102.20;;;52.97;;
50393;SDS011;36308;46.312;25.288;2023-01-09T15:23:47;105.72;;;56.58;;
50393;SDS011;36308;46.312;25.288;2023-01-09T15:26:29;112.03;;;56.90;;
50393;SDS011;36308;46.312;25.288;2023-01-09T15:29:08;131.02;;;65.20;;
50393;SDS011;36308;46.312;25.288;2023-01-09T15:31:42;102.30;;;51.67;;
50393;SDS011;36308;46.312;25.288;2023-01-09T15:34:13;99.45;;;48.72;;
50393;SDS011;36308;46.312;25.288;2023-01-09T15:36:42;103.78;;;55.55;;
50393;SDS011;36308;46.312;25.288;2023-01-09T15:39:08;87.30;;;50.72;;
50393;SDS011;36308;46.312;25.288;2023-01-09T15:41:34;104.07;;;63.03;;
50393;SDS011;36308;46.312;25.288;2023-01-09T15:44:23;85.38;;;52.83;;
50393;SDS011;36308;46.312;25.288;2023-01-09T15:46:55;109.57;;;68.47;;
50393;SDS011;36308;46.312;25.288;2023-01-09T15:49:22;145.73;;;84.97;;
50393;SDS011;36308;46.312;25.288;2023-01-09T15:51:49;123.65;;;73.43;;
50393;SDS011;36308;46.312;25.288;2023-01-09T15:54:16;123.43;;;65.78;;
50393;SDS011;36308;46.312;25.288;2023-01-09T15:56:47;119.68;;;67.03;;
50393;SDS011;36308;46.312;25.288;2023-01-09T15:59:22;122.78;;;69.30;;
50393;SDS011;36308;46.312;25.288;2023-01-09T16:01:59;151.15;;;78.80;;
50393;SDS011;36308;46.312;25.288;2023-01-09T16:04:45;163.10;;;88.95;;
50393;SDS011;36308;46.312;25.288;2023-01-09T16:07:12;185.85;;;100.20;;
50393;SDS011;36308;46.312;25.288;2023-01-09T16:09:40;179.57;;;94.05;;
50393;SDS011;36308;46.312;25.288;2023-01-09T16:12:42;168.43;;;90.53;;
50393;SDS011;36308;46.312;25.288;2023-01-09T16:15:04;206.88;;;107.15;;
50393;SDS011;36308;46.312;25.288;2023-01-09T16:17:30;212.77;;;111.70;;
50393;SDS011;36308;46.312;25.288;2023-01-09T16:19:56;143.20;;;80.70;;
50393;SDS011;36308;46.312;25.288;2023-01-09T16:22:55;117.80;;;62.88;;
50393;SDS011;36308;46.312;25.288;2023-01-09T16:25:28;100.75;;;59.97;;
50393;SDS011;36308;46.312;25.288;2023-01-09T16:33:21;117.28;;;63.35;;
50393;SDS011;36308;46.312;25.288;2023-01-09T16:35:48;144.25;;;78.22;;
50393;SDS011;36308;46.312;25.288;2023-01-09T16:38:15;115.50;;;62.53;;
50393;SDS011;36308;46.312;25.288;2023-01-09T16:43:43;324.42;;;174.05;;
50393;SDS011;36308;46.312;25.288;2023-01-09T16:46:09;144.10;;;80.65;;
50393;SDS011;36308;46.312;25.288;2023-01-09T16:48:35;112.82;;;63.08;;
50393;SDS011;36308;46.312;25.288;2023-01-09T16:51:03;41.95;;;27.17;;
50393;SDS011;36308;46.312;25.288;2023-01-09T16:53:29;44.78;;;26.15;;
50393;SDS011;36308;46.312;25.288;2023-01-09T16:55:58;95.13;;;49.30;;
50393;SDS011;36308;46.312;25.288;2023-01-09T16:58:24;108.32;;;53.05;;